createdAt,value
2023-04-04T00:02:59.972Z,0.10
2023-04-04T00:06:03.270Z,0.10
2023-04-04T00:09:10.688Z,0.10
2023-04-04T00:12:14.101Z,0.00
2023-04-04T00:15:17.388Z,0.00
2023-04-04T00:18:20.988Z,0.00
2023-04-04T00:21:25.540Z,0.00
2023-04-04T00:24:30.697Z,0.00
2023-04-04T00:27:34.377Z,0.00
2023-04-04T00:30:38.120Z,-0.10
2023-04-04T00:33:41.231Z,-0.10
2023-04-04T00:36:44.333Z,-0.10
2023-04-04T00:39:50.375Z,-0.10
2023-04-04T00:42:54.434Z,-0.10
2023-04-04T00:45:57.956Z,-0.10
2023-04-04T00:49:01.055Z,-0.10
2023-04-04T00:52:07.214Z,-0.20
2023-04-04T00:55:12.111Z,-0.10
2023-04-04T00:58:15.248Z,-0.20
2023-04-04T01:01:18.492Z,-0.20
2023-04-04T01:04:21.672Z,-0.30
2023-04-04T01:07:25.052Z,-0.30
2023-04-04T01:10:31.760Z,-0.30
2023-04-04T01:13:36.734Z,-0.30
2023-04-04T01:16:40.446Z,-0.30
2023-04-04T01:19:49.678Z,-0.30
2023-04-04T01:22:54.809Z,-0.30
2023-04-04T01:26:04.722Z,-0.30
2023-04-04T01:29:07.796Z,-0.40
2023-04-04T01:32:15.941Z,-0.40
2023-04-04T01:35:30.055Z,-0.40
2023-04-04T01:38:42.332Z,-0.40
2023-04-04T01:41:49.749Z,-0.40
2023-04-04T01:44:56.236Z,-0.50
2023-04-04T01:47:59.306Z,-0.50
2023-04-04T01:51:03.289Z,-0.50
2023-04-04T01:54:06.808Z,-0.50
2023-04-04T01:57:11.165Z,-0.50
2023-04-04T02:00:16.530Z,-0.50
2023-04-04T02:03:19.530Z,-0.60
2023-04-04T02:06:22.754Z,-0.60
2023-04-04T02:09:26.198Z,-0.60
2023-04-04T02:12:30.762Z,-0.60
2023-04-04T02:15:34.439Z,-0.60
2023-04-04T02:18:37.565Z,-0.60
2023-04-04T02:21:40.685Z,-0.70
2023-04-04T02:24:43.753Z,-0.70
2023-04-04T02:27:48.119Z,-0.70
2023-04-04T02:30:51.178Z,-0.70
2023-04-04T02:33:54.208Z,-0.70
2023-04-04T02:36:57.435Z,-0.70
2023-04-04T02:40:00.449Z,-0.70
2023-04-04T02:43:04.795Z,-0.70
2023-04-04T02:46:20.485Z,-0.70
2023-04-04T02:49:24.766Z,-0.70
2023-04-04T02:52:27.844Z,-0.70
2023-04-04T02:55:33.757Z,-0.80
2023-04-04T02:58:38.698Z,-0.80
2023-04-04T03:01:42.843Z,-0.80
2023-04-04T03:04:46.073Z,-0.80
2023-04-04T03:07:48.994Z,-0.80
2023-04-04T03:10:51.991Z,-0.90
2023-04-04T03:13:56.581Z,-0.90
2023-04-04T03:16:59.698Z,-0.90
2023-04-04T03:20:02.749Z,-0.90
2023-04-04T03:23:05.776Z,-0.90
2023-04-04T03:26:08.747Z,-0.90
2023-04-04T03:29:13.166Z,-0.90
2023-04-04T03:32:16.261Z,-1.00
2023-04-04T03:35:19.209Z,-1.00
2023-04-04T03:38:22.434Z,-1.00
2023-04-04T03:41:25.368Z,-1.00
2023-04-04T03:44:30.605Z,-1.00
2023-04-04T03:47:33.664Z,-1.00
2023-04-04T03:50:37.605Z,-1.00
2023-04-04T03:53:40.974Z,-1.00
2023-04-04T03:56:44.429Z,-1.00
2023-04-04T03:59:49.095Z,-1.00
2023-04-04T04:02:52.085Z,-1.00
2023-04-04T04:05:55.600Z,-1.10
2023-04-04T04:08:58.900Z,-1.10
2023-04-04T04:12:01.878Z,-1.10
2023-04-04T04:15:07.238Z,-1.10
2023-04-04T04:18:10.216Z,-1.10
2023-04-04T04:21:13.184Z,-1.10
2023-04-04T04:24:16.468Z,-1.10
2023-04-04T04:27:19.563Z,-1.20
2023-04-04T04:30:24.440Z,-1.20
2023-04-04T04:33:30.807Z,-1.20
2023-04-04T04:36:34.847Z,-1.20
2023-04-04T04:39:37.991Z,-1.20
2023-04-04T04:42:45.792Z,-1.30
2023-04-04T04:45:50.767Z,-1.30
2023-04-04T04:48:54.797Z,-1.20
2023-04-04T04:51:57.786Z,-1.20
2023-04-04T04:55:03.115Z,-1.20
2023-04-04T04:58:06.883Z,-1.10
2023-04-04T05:01:11.318Z,-1.10
2023-04-04T05:04:14.688Z,-1.10
2023-04-04T05:07:18.483Z,-1.10
2023-04-04T05:10:21.488Z,-1.10
2023-04-04T05:13:25.125Z,-1.10
2023-04-04T05:16:29.811Z,-1.00
2023-04-04T05:19:32.932Z,-0.90
2023-04-04T05:22:36.102Z,-0.90
2023-04-04T05:25:39.064Z,-0.90
2023-04-04T05:28:42.298Z,-0.90
2023-04-04T05:31:47.622Z,-0.90
2023-04-04T05:34:50.822Z,-0.70
2023-04-04T05:37:57.032Z,-0.70
2023-04-04T05:41:00.010Z,-0.70
2023-04-04T05:44:03.100Z,-0.60
2023-04-04T05:47:07.602Z,-0.50
2023-04-04T05:50:11.605Z,-0.50
2023-04-04T05:53:14.544Z,-0.40
2023-04-04T05:56:18.005Z,-0.30
2023-04-04T05:59:21.104Z,-0.20
2023-04-04T06:02:25.795Z,-0.20
2023-04-04T06:05:28.839Z,-0.10
2023-04-04T06:08:35.366Z,-0.10
2023-04-04T06:11:43.411Z,0.00
2023-04-04T06:14:46.642Z,0.20
2023-04-04T06:17:51.297Z,0.50
2023-04-04T06:20:54.422Z,0.60
2023-04-04T06:23:57.906Z,0.80
2023-04-04T06:27:00.854Z,0.80
2023-04-04T06:30:03.944Z,1.00
2023-04-04T06:33:08.385Z,1.20
2023-04-04T06:36:11.478Z,1.40
2023-04-04T06:39:14.742Z,1.50
2023-04-04T06:42:17.717Z,1.70
2023-04-04T06:45:20.692Z,1.80
2023-04-04T06:48:25.178Z,2.00
2023-04-04T06:51:28.651Z,2.10
2023-04-04T06:54:31.859Z,2.30
2023-04-04T06:57:34.793Z,2.50
2023-04-04T07:00:38.010Z,2.50
2023-04-04T07:03:44.466Z,2.50
2023-04-04T07:06:47.659Z,3.10
2023-04-04T07:09:50.711Z,4.40
2023-04-04T07:12:55.467Z,4.70
2023-04-04T07:15:58.443Z,4.50
2023-04-04T07:19:02.804Z,4.20
2023-04-04T07:22:06.096Z,4.00
2023-04-04T07:25:10.146Z,3.80
2023-04-04T07:28:13.713Z,3.70
2023-04-04T07:31:16.794Z,3.60
2023-04-04T07:34:21.211Z,3.50
2023-04-04T07:37:26.546Z,3.30
2023-04-04T07:40:29.557Z,3.30
2023-04-04T07:43:32.785Z,3.30
2023-04-04T07:46:36.003Z,3.10
2023-04-04T07:49:40.740Z,3.10
2023-04-04T07:52:49.349Z,3.10
2023-04-04T07:55:52.307Z,3.10
2023-04-04T07:58:55.617Z,3.10
2023-04-04T08:01:58.639Z,3.10
2023-04-04T08:05:03.286Z,3.30
2023-04-04T08:08:06.476Z,3.30
2023-04-04T08:11:09.402Z,3.30
2023-04-04T08:14:13.247Z,3.60
2023-04-04T08:17:18.924Z,3.70
2023-04-04T08:20:23.417Z,3.90
2023-04-04T08:23:26.361Z,3.90
2023-04-04T08:26:29.512Z,3.90
2023-04-04T08:29:32.789Z,4.10
2023-04-04T08:32:35.884Z,4.30
2023-04-04T08:35:40.258Z,4.50
2023-04-04T08:38:43.911Z,4.60
2023-04-04T08:41:47.332Z,4.70
2023-04-04T08:44:52.759Z,5.00
2023-04-04T08:47:58.940Z,5.00
2023-04-04T08:51:05.427Z,5.10
2023-04-04T08:54:09.543Z,5.10
2023-04-04T08:57:12.624Z,5.10
2023-04-04T09:00:17.921Z,5.20
2023-04-04T09:03:26.140Z,5.10
2023-04-04T09:06:30.927Z,5.00
2023-04-04T09:09:37.816Z,5.20
2023-04-04T09:12:47.401Z,5.30
2023-04-04T09:15:54.058Z,5.30
2023-04-04T09:18:56.930Z,5.40
2023-04-04T09:22:01.253Z,5.50
2023-04-04T09:25:08.924Z,5.60
2023-04-04T09:28:12.680Z,5.70
2023-04-04T09:31:17.278Z,5.70
2023-04-04T09:34:21.608Z,5.80
2023-04-04T09:37:26.390Z,5.80
2023-04-04T09:40:30.506Z,6.00
2023-04-04T09:43:35.112Z,6.20
2023-04-04T09:46:39.052Z,6.30
2023-04-04T09:49:42.238Z,6.40
2023-04-04T09:52:49.835Z,6.70
2023-04-04T09:55:54.318Z,6.60
2023-04-04T09:59:04.005Z,6.80
2023-04-04T10:02:11.045Z,6.90
2023-04-04T10:05:15.632Z,7.00
2023-04-04T10:08:23.213Z,7.20
2023-04-04T10:11:32.286Z,7.40
2023-04-04T10:14:36.584Z,7.40
2023-04-04T10:17:42.095Z,7.20
2023-04-04T10:20:45.315Z,6.80
2023-04-04T10:23:50.500Z,6.70
2023-04-04T10:26:54.825Z,6.50
2023-04-04T10:29:58.074Z,6.60
2023-04-04T10:33:07.796Z,6.70
2023-04-04T10:36:13.441Z,7.00
2023-04-04T10:39:23.136Z,7.00
2023-04-04T10:42:32.047Z,7.00
2023-04-04T10:45:38.395Z,6.90
2023-04-04T10:48:42.950Z,6.70
2023-04-04T10:51:55.858Z,6.60
2023-04-04T10:55:04.268Z,6.60
2023-04-04T10:58:08.901Z,7.00
2023-04-04T11:01:11.888Z,7.30
2023-04-04T11:04:21.106Z,7.50
2023-04-04T11:07:29.447Z,7.80
2023-04-04T11:10:36.728Z,7.50
2023-04-04T11:13:41.463Z,7.30
2023-04-04T11:16:48.223Z,7.00
2023-04-04T11:20:00.366Z,6.80
2023-04-04T11:23:05.366Z,6.80
2023-04-04T11:26:10.083Z,7.10
2023-04-04T11:29:22.144Z,7.50
2023-04-04T11:32:35.759Z,7.80
2023-04-04T11:35:40.824Z,7.80
2023-04-04T11:38:50.689Z,7.90
2023-04-04T11:42:04.041Z,7.80
2023-04-04T11:45:10.115Z,7.60
2023-04-04T11:48:15.207Z,7.40
2023-04-04T11:51:20.896Z,7.50
2023-04-04T11:54:24.341Z,8.00
2023-04-04T11:57:28.713Z,8.30
2023-04-04T12:00:32.701Z,8.30
2023-04-04T12:03:37.723Z,8.20
2023-04-04T12:06:41.144Z,8.10
2023-04-04T12:09:44.669Z,8.00
2023-04-04T12:12:49.384Z,7.80
2023-04-04T12:15:52.761Z,8.00
2023-04-04T12:18:55.828Z,8.20
2023-04-04T12:21:59.413Z,8.40
2023-04-04T12:25:02.555Z,8.80
2023-04-04T12:28:08.052Z,8.90
2023-04-04T12:31:11.896Z,8.80
2023-04-04T12:34:19.321Z,9.00
2023-04-04T12:37:23.467Z,9.20
2023-04-04T12:40:31.284Z,9.10
2023-04-04T12:43:36.755Z,9.10
2023-04-04T12:46:41.015Z,9.00
2023-04-04T12:49:48.658Z,8.80
2023-04-04T12:52:55.528Z,8.40
2023-04-04T12:56:05.564Z,8.10
2023-04-04T12:59:11.500Z,8.10
2023-04-04T13:02:17.449Z,8.20
2023-04-04T13:05:23.239Z,8.30
2023-04-04T13:08:26.597Z,8.60
2023-04-04T13:12:01.045Z,8.50
2023-04-04T13:15:07.631Z,8.30
2023-04-04T13:18:16.517Z,8.10
2023-04-04T13:21:19.721Z,7.90
2023-04-04T13:24:22.895Z,7.70
2023-04-04T13:27:28.562Z,8.00
2023-04-04T13:30:33.126Z,8.30
2023-04-04T13:33:36.632Z,8.50
2023-04-04T13:36:39.668Z,8.60
2023-04-04T13:39:42.734Z,8.90
2023-04-04T13:42:45.823Z,8.90
2023-04-04T13:45:50.400Z,8.90
2023-04-04T13:48:53.452Z,8.60
2023-04-04T13:51:56.408Z,8.40
2023-04-04T13:54:59.365Z,8.40
2023-04-04T13:58:02.414Z,8.30
2023-04-04T14:01:07.277Z,8.30
2023-04-04T14:04:22.725Z,8.20
2023-04-04T14:07:26.681Z,8.40
2023-04-04T14:10:29.710Z,8.60
2023-04-04T14:13:35.795Z,8.80
2023-04-04T14:16:40.383Z,8.80
2023-04-04T14:19:45.310Z,8.40
2023-04-04T14:22:48.555Z,8.00
2023-04-04T14:25:51.699Z,7.80
2023-04-04T14:28:54.662Z,7.80
2023-04-04T14:31:59.319Z,7.60
2023-04-04T14:35:02.437Z,7.40
2023-04-04T14:38:05.552Z,7.50
2023-04-04T14:41:08.829Z,7.60
2023-04-04T14:44:11.794Z,7.80
2023-04-04T14:47:16.479Z,7.90
2023-04-04T14:50:19.458Z,7.80
2023-04-04T14:53:22.855Z,7.80
2023-04-04T14:56:26.109Z,7.80
2023-04-04T14:59:29.459Z,7.70
2023-04-04T15:02:34.036Z,7.50
2023-04-04T15:05:37.083Z,7.40
2023-04-04T15:08:41.637Z,7.20
2023-04-04T15:11:45.055Z,7.20
2023-04-04T15:14:48.291Z,7.30
2023-04-04T15:17:52.982Z,7.20
2023-04-04T15:20:58.860Z,7.10
2023-04-04T15:24:01.909Z,7.00
2023-04-04T15:27:04.944Z,7.10
2023-04-04T15:30:09.316Z,7.20
2023-04-04T15:33:13.680Z,7.20
2023-04-04T15:36:17.894Z,7.40
2023-04-04T15:39:21.093Z,7.40
2023-04-04T15:42:24.445Z,7.50
2023-04-04T15:45:28.009Z,7.50
2023-04-04T15:48:34.209Z,7.40
2023-04-04T15:51:39.006Z,7.30
2023-04-04T15:54:42.829Z,7.40
2023-04-04T15:57:46.384Z,7.40
2023-04-04T16:00:49.443Z,7.30
2023-04-04T16:03:53.919Z,7.20
2023-04-04T16:06:56.999Z,7.00
2023-04-04T16:09:59.958Z,6.90
2023-04-04T16:13:03.100Z,6.80
2023-04-04T16:16:06.380Z,6.70
2023-04-04T16:19:14.168Z,6.70
2023-04-04T16:22:17.435Z,6.60
2023-04-04T16:25:21.098Z,6.60
2023-04-04T16:28:24.293Z,6.40
2023-04-04T16:31:27.345Z,6.50
2023-04-04T16:34:31.742Z,6.40
2023-04-04T16:37:34.705Z,6.30
2023-04-04T16:40:37.837Z,6.10
2023-04-04T16:43:41.186Z,6.10
2023-04-04T16:46:44.224Z,6.10
2023-04-04T16:49:49.282Z,6.10
2023-04-04T16:52:54.003Z,6.00
2023-04-04T16:55:57.029Z,6.00
2023-04-04T16:59:00.121Z,5.90
2023-04-04T17:02:05.243Z,5.90
2023-04-04T17:05:10.273Z,5.90
2023-04-04T17:08:13.364Z,5.90
2023-04-04T17:11:19.074Z,5.90
2023-04-04T17:14:22.477Z,5.90
2023-04-04T17:17:25.465Z,5.90
2023-04-04T17:20:34.378Z,5.80
2023-04-04T17:23:37.755Z,5.80
2023-04-04T17:26:41.657Z,5.80
2023-04-04T17:29:45.670Z,5.80
2023-04-04T17:32:49.116Z,5.70
2023-04-04T17:35:53.552Z,5.70
2023-04-04T17:38:56.803Z,5.60
2023-04-04T17:41:59.886Z,5.60
2023-04-04T17:45:03.101Z,5.50
2023-04-04T17:48:06.624Z,5.50
2023-04-04T17:51:12.569Z,5.50
2023-04-04T17:54:15.668Z,5.50
2023-04-04T17:57:19.192Z,5.40
2023-04-04T18:00:23.545Z,5.50
2023-04-04T18:03:26.747Z,5.50
2023-04-04T18:06:31.602Z,5.50
2023-04-04T18:09:34.639Z,5.40
2023-04-04T18:12:37.897Z,5.30
2023-04-04T18:15:41.445Z,5.30
2023-04-04T18:18:44.787Z,5.20
2023-04-04T18:21:51.236Z,5.10
2023-04-04T18:24:55.907Z,5.00
2023-04-04T18:27:58.994Z,5.00
2023-04-04T18:31:03.291Z,5.00
2023-04-04T18:34:06.504Z,5.00
2023-04-04T18:37:12.322Z,5.00
2023-04-04T18:40:17.101Z,5.00
2023-04-04T18:43:20.413Z,4.90
2023-04-04T18:46:23.406Z,4.90
2023-04-04T18:49:27.151Z,4.90
2023-04-04T18:52:31.873Z,4.90
2023-04-04T18:55:34.967Z,4.80
2023-04-04T18:58:38.223Z,4.70
2023-04-04T19:01:41.545Z,4.70
2023-04-04T19:04:45.503Z,4.70
2023-04-04T19:07:52.201Z,4.70
2023-04-04T19:10:55.486Z,4.70
2023-04-04T19:13:58.645Z,4.70
2023-04-04T19:17:01.692Z,4.70
2023-04-04T19:20:04.950Z,4.60
2023-04-04T19:23:10.287Z,4.50
2023-04-04T19:26:14.690Z,4.50
2023-04-04T19:29:22.112Z,4.50
2023-04-04T19:32:29.103Z,4.40
2023-04-04T19:35:53.610Z,4.30
2023-04-04T19:38:58.198Z,4.30
2023-04-04T19:42:02.592Z,4.30
2023-04-04T19:45:13.977Z,4.30
2023-04-04T19:48:43.308Z,4.20
2023-04-04T19:51:56.547Z,4.20
2023-04-04T19:55:03.744Z,4.20
2023-04-04T19:58:07.369Z,4.10
2023-04-04T20:01:11.870Z,4.10
2023-04-04T20:04:14.963Z,4.10
2023-04-04T20:07:18.336Z,4.10
2023-04-04T20:10:38.148Z,4.10
2023-04-04T20:13:42.292Z,4.10
2023-04-04T20:16:45.871Z,4.20
2023-04-04T20:19:49.227Z,4.10
2023-04-04T20:22:52.894Z,4.00
2023-04-04T20:26:05.805Z,3.90
2023-04-04T20:29:10.604Z,3.90
2023-04-04T20:32:13.983Z,3.80
2023-04-04T20:35:27.846Z,3.70
2023-04-04T20:38:30.981Z,3.60
2023-04-04T20:41:35.450Z,3.60
2023-04-04T20:44:38.494Z,3.50
2023-04-04T20:47:46.641Z,3.50
2023-04-04T20:50:50.654Z,3.50
2023-04-04T20:53:55.027Z,3.40
2023-04-04T20:56:59.464Z,3.30
2023-04-04T21:00:04.567Z,3.30
2023-04-04T21:03:10.889Z,3.20
2023-04-04T21:06:16.388Z,3.10
2023-04-04T21:09:20.056Z,3.10
2023-04-04T21:12:24.615Z,3.00
2023-04-04T21:15:30.193Z,3.00
2023-04-04T21:18:33.665Z,2.90
2023-04-04T21:21:37.365Z,2.90
2023-04-04T21:24:41.295Z,2.80
2023-04-04T21:27:45.711Z,2.80
2023-04-04T21:30:48.766Z,2.70
2023-04-04T21:33:54.196Z,2.70
2023-04-04T21:37:01.808Z,2.60
2023-04-04T21:40:08.166Z,2.60
2023-04-04T21:43:12.575Z,2.50
2023-04-04T21:46:15.948Z,2.50
2023-04-04T21:49:19.347Z,2.40
2023-04-04T21:52:22.362Z,2.40
2023-04-04T21:55:25.653Z,2.30
2023-04-04T21:58:30.483Z,2.30
2023-04-04T22:01:33.526Z,2.30
2023-04-04T22:04:36.667Z,2.20
2023-04-04T22:07:41.807Z,2.20
2023-04-04T22:10:49.988Z,2.10
2023-04-04T22:14:03.528Z,2.10
2023-04-04T22:17:06.991Z,2.10
2023-04-04T22:20:12.756Z,2.00
2023-04-04T22:23:17.787Z,2.00
2023-04-04T22:26:29.081Z,1.90
2023-04-04T22:29:34.042Z,1.90
2023-04-04T22:32:39.348Z,1.80
2023-04-04T22:35:43.472Z,1.80
2023-04-04T22:38:46.501Z,1.80
2023-04-04T22:41:49.500Z,1.70
2023-04-04T22:44:53.784Z,1.70
2023-04-04T22:47:57.614Z,1.70
2023-04-04T22:51:02.713Z,1.70
2023-04-04T22:54:05.780Z,1.60
2023-04-04T22:57:08.852Z,1.60
2023-04-04T23:00:14.742Z,1.60
2023-04-04T23:03:17.804Z,1.50
2023-04-04T23:06:21.016Z,1.50
2023-04-04T23:09:24.109Z,1.40
2023-04-04T23:12:27.194Z,1.40
2023-04-04T23:15:35.428Z,1.40
2023-04-04T23:18:38.815Z,1.40
2023-04-04T23:21:42.089Z,1.40
2023-04-04T23:24:47.334Z,1.20
2023-04-04T23:27:50.396Z,1.20
2023-04-04T23:30:54.789Z,1.20
2023-04-04T23:33:57.815Z,1.20
2023-04-04T23:37:01.379Z,1.10
2023-04-04T23:40:06.634Z,1.10
2023-04-04T23:43:09.665Z,1.00
2023-04-04T23:46:14.528Z,1.00
2023-04-04T23:49:18.120Z,1.00
2023-04-04T23:52:21.493Z,1.00
2023-04-04T23:55:24.577Z,1.00
2023-04-04T23:58:27.953Z,1.00
